sensor_id;sensor_type;location;lat;lon;timestamp;pressure;altitude;pressure_sealevel;temperature;humidity
80397;BME280;69721;55.894;-3.052;2023-11-21T00:00:42;101703.95;;;5.67;59.76
80397;BME280;69721;55.894;-3.052;2023-11-21T00:03:07;101700.30;;;5.34;61.63
80397;BME280;69721;55.894;-3.052;2023-11-21T00:05:33;101699.07;;;5.77;60.65
80397;BME280;69721;55.894;-3.052;2023-11-21T00:07:58;101701.43;;;5.78;59.98
80397;BME280;69721;55.894;-3.052;2023-11-21T00:10:24;101705.80;;;5.67;60.95
80397;BME280;69721;55.894;-3.052;2023-11-21T00:12:49;101703.87;;;5.60;60.32
80397;BME280;69721;55.894;-3.052;2023-11-21T00:15:15;101696.67;;;6.39;59.00
80397;BME280;69721;55.894;-3.052;2023-11-21T00:17:40;101706.63;;;6.60;57.89
80397;BME280;69721;55.894;-3.052;2023-11-21T00:20:07;101709.99;;;5.71;59.45
80397;BME280;69721;55.894;-3.052;2023-11-21T00:22:31;101716.36;;;5.52;59.55
80397;BME280;69721;55.894;-3.052;2023-11-21T00:24:57;101722.70;;;5.31;61.40
80397;BME280;69721;55.894;-3.052;2023-11-21T00:27:22;101724.13;;;5.69;60.84
80397;BME280;69721;55.894;-3.052;2023-11-21T00:29:48;101715.05;;;6.96;57.91
80397;BME280;69721;55.894;-3.052;2023-11-21T00:32:13;101717.05;;;6.42;58.31
80397;BME280;69721;55.894;-3.052;2023-11-21T00:34:39;101716.84;;;6.12;59.22
80397;BME280;69721;55.894;-3.052;2023-11-21T00:37:04;101710.55;;;6.97;56.94
80397;BME280;69721;55.894;-3.052;2023-11-21T00:39:30;101715.05;;;6.30;57.33
80397;BME280;69721;55.894;-3.052;2023-11-21T00:41:55;101725.63;;;5.35;60.27
80397;BME280;69721;55.894;-3.052;2023-11-21T00:44:21;101727.55;;;5.69;58.76
80397;BME280;69721;55.894;-3.052;2023-11-21T00:46:46;101734.06;;;5.80;58.68
80397;BME280;69721;55.894;-3.052;2023-11-21T00:49:12;101744.38;;;5.47;59.95
80397;BME280;69721;55.894;-3.052;2023-11-21T00:51:37;101741.35;;;5.96;59.09
80397;BME280;69721;55.894;-3.052;2023-11-21T00:54:03;101740.86;;;6.15;58.23
80397;BME280;69721;55.894;-3.052;2023-11-21T00:56:28;101738.42;;;6.58;58.23
80397;BME280;69721;55.894;-3.052;2023-11-21T00:58:54;101737.04;;;7.72;53.97
80397;BME280;69721;55.894;-3.052;2023-11-21T01:01:20;101739.46;;;7.68;54.13
80397;BME280;69721;55.894;-3.052;2023-11-21T01:03:46;101745.72;;;6.64;56.69
80397;BME280;69721;55.894;-3.052;2023-11-21T01:06:11;101740.59;;;7.20;55.39
80397;BME280;69721;55.894;-3.052;2023-11-21T01:08:37;101746.57;;;6.54;56.52
80397;BME280;69721;55.894;-3.052;2023-11-21T01:11:02;101747.06;;;5.64;59.05
80397;BME280;69721;55.894;-3.052;2023-11-21T01:13:28;101749.62;;;5.86;59.37
80397;BME280;69721;55.894;-3.052;2023-11-21T01:15:53;101748.19;;;6.66;56.56
80397;BME280;69721;55.894;-3.052;2023-11-21T01:18:19;101746.50;;;6.81;55.39
80397;BME280;69721;55.894;-3.052;2023-11-21T01:20:44;101751.42;;;6.64;56.11
80397;BME280;69721;55.894;-3.052;2023-11-21T01:23:10;101757.84;;;6.14;57.14
80397;BME280;69721;55.894;-3.052;2023-11-21T01:25:35;101764.75;;;5.77;58.34
80397;BME280;69721;55.894;-3.052;2023-11-21T01:28:01;101768.77;;;5.21;59.35
80397;BME280;69721;55.894;-3.052;2023-11-21T01:30:26;101777.90;;;6.20;57.05
80397;BME280;69721;55.894;-3.052;2023-11-21T01:32:52;101788.59;;;6.89;55.51
80397;BME280;69721;55.894;-3.052;2023-11-21T01:35:17;101796.00;;;6.50;57.13
80397;BME280;69721;55.894;-3.052;2023-11-21T01:37:43;101804.31;;;5.55;58.80
80397;BME280;69721;55.894;-3.052;2023-11-21T01:40:09;101809.62;;;6.07;58.76
80397;BME280;69721;55.894;-3.052;2023-11-21T01:42:34;101820.06;;;6.18;57.48
80397;BME280;69721;55.894;-3.052;2023-11-21T01:44:59;101822.59;;;6.97;55.26
80397;BME280;69721;55.894;-3.052;2023-11-21T01:47:25;101834.41;;;6.41;56.98
80397;BME280;69721;55.894;-3.052;2023-11-21T01:49:50;101834.98;;;5.78;58.90
80397;BME280;69721;55.894;-3.052;2023-11-21T01:52:16;101834.05;;;6.95;56.42
80397;BME280;69721;55.894;-3.052;2023-11-21T01:54:41;101833.90;;;6.27;56.48
80397;BME280;69721;55.894;-3.052;2023-11-21T01:57:07;101836.81;;;6.59;56.03
80397;BME280;69721;55.894;-3.052;2023-11-21T01:59:35;101838.80;;;6.29;56.89
80397;BME280;69721;55.894;-3.052;2023-11-21T02:01:59;101838.02;;;7.03;55.43
80397;BME280;69721;55.894;-3.052;2023-11-21T02:04:24;101834.69;;;8.07;51.99
80397;BME280;69721;55.894;-3.052;2023-11-21T02:06:50;101839.35;;;8.19;51.37
80397;BME280;69721;55.894;-3.052;2023-11-21T02:09:15;101843.98;;;7.94;51.74
80397;BME280;69721;55.894;-3.052;2023-11-21T02:11:40;101845.01;;;9.15;48.98
80397;BME280;69721;55.894;-3.052;2023-11-21T02:14:06;101849.80;;;8.31;50.60
80397;BME280;69721;55.894;-3.052;2023-11-21T02:16:31;101859.40;;;6.80;54.59
80397;BME280;69721;55.894;-3.052;2023-11-21T02:18:57;101863.42;;;6.28;54.90
80397;BME280;69721;55.894;-3.052;2023-11-21T02:21:23;101867.88;;;6.03;56.47
80397;BME280;69721;55.894;-3.052;2023-11-21T02:23:48;101869.59;;;7.44;54.19
80397;BME280;69721;55.894;-3.052;2023-11-21T02:26:13;101878.93;;;7.00;54.88
80397;BME280;69721;55.894;-3.052;2023-11-21T02:28:39;101885.02;;;6.52;55.88
80397;BME280;69721;55.894;-3.052;2023-11-21T02:31:04;101885.81;;;7.33;54.43
80397;BME280;69721;55.894;-3.052;2023-11-21T02:33:30;101884.47;;;7.55;53.65
80397;BME280;69721;55.894;-3.052;2023-11-21T02:35:55;101884.22;;;7.62;53.45
80397;BME280;69721;55.894;-3.052;2023-11-21T02:38:21;101888.45;;;6.15;54.88
80397;BME280;69721;55.894;-3.052;2023-11-21T02:40:46;101881.21;;;8.21;51.50
80397;BME280;69721;55.894;-3.052;2023-11-21T02:43:12;101884.18;;;8.06;50.98
80397;BME280;69721;55.894;-3.052;2023-11-21T02:45:37;101886.58;;;7.59;51.98
80397;BME280;69721;55.894;-3.052;2023-11-21T02:48:03;101880.38;;;8.10;50.65
80397;BME280;69721;55.894;-3.052;2023-11-21T02:50:28;101882.20;;;8.03;51.17
80397;BME280;69721;55.894;-3.052;2023-11-21T02:52:54;101885.69;;;7.56;52.93
80397;BME280;69721;55.894;-3.052;2023-11-21T02:55:19;101879.77;;;7.56;52.56
80397;BME280;69721;55.894;-3.052;2023-11-21T02:57:45;101884.94;;;7.73;51.56
80397;BME280;69721;55.894;-3.052;2023-11-21T03:00:11;101888.90;;;8.27;50.87
80397;BME280;69721;55.894;-3.052;2023-11-21T03:02:36;101900.19;;;7.49;52.23
80397;BME280;69721;55.894;-3.052;2023-11-21T03:05:01;101906.22;;;7.56;52.75
80397;BME280;69721;55.894;-3.052;2023-11-21T03:07:27;101904.51;;;7.40;52.36
80397;BME280;69721;55.894;-3.052;2023-11-21T03:09:53;101912.09;;;7.61;52.04
80397;BME280;69721;55.894;-3.052;2023-11-21T03:12:19;101920.75;;;7.72;49.92
80397;BME280;69721;55.894;-3.052;2023-11-21T03:14:44;101929.18;;;7.05;52.93
80397;BME280;69721;55.894;-3.052;2023-11-21T03:17:09;101924.56;;;8.16;50.19
80397;BME280;69721;55.894;-3.052;2023-11-21T03:19:35;101937.22;;;5.72;55.16
80397;BME280;69721;55.894;-3.052;2023-11-21T03:22:01;101940.45;;;5.90;55.38
80397;BME280;69721;55.894;-3.052;2023-11-21T03:24:27;101939.91;;;6.12;56.01
80397;BME280;69721;55.894;-3.052;2023-11-21T03:26:52;101940.05;;;6.27;55.85
80397;BME280;69721;55.894;-3.052;2023-11-21T03:29:18;101941.96;;;6.87;54.22
80397;BME280;69721;55.894;-3.052;2023-11-21T03:31:43;101944.61;;;7.24;51.85
80397;BME280;69721;55.894;-3.052;2023-11-21T03:34:15;101949.91;;;6.39;54.47
80397;BME280;69721;55.894;-3.052;2023-11-21T03:36:34;101955.76;;;7.01;53.85
80397;BME280;69721;55.894;-3.052;2023-11-21T03:39:00;101955.72;;;5.62;56.01
80397;BME280;69721;55.894;-3.052;2023-11-21T03:41:25;101958.06;;;7.28;52.34
80397;BME280;69721;55.894;-3.052;2023-11-21T03:43:51;101958.65;;;6.92;53.35
80397;BME280;69721;55.894;-3.052;2023-11-21T03:46:16;101967.31;;;6.49;54.53
80397;BME280;69721;55.894;-3.052;2023-11-21T03:48:42;101969.36;;;6.37;54.88
80397;BME280;69721;55.894;-3.052;2023-11-21T03:51:07;101978.86;;;7.28;52.57
80397;BME280;69721;55.894;-3.052;2023-11-21T03:53:33;101986.20;;;5.76;55.53
80397;BME280;69721;55.894;-3.052;2023-11-21T03:55:58;101985.78;;;6.49;53.77
80397;BME280;69721;55.894;-3.052;2023-11-21T03:58:24;101986.99;;;7.55;51.83
80397;BME280;69721;55.894;-3.052;2023-11-21T04:00:49;101993.31;;;5.91;55.28
80397;BME280;69721;55.894;-3.052;2023-11-21T04:03:15;101999.02;;;4.93;57.17
80397;BME280;69721;55.894;-3.052;2023-11-21T04:05:40;101999.15;;;5.44;57.19
80397;BME280;69721;55.894;-3.052;2023-11-21T04:08:10;101999.27;;;5.75;56.22
80397;BME280;69721;55.894;-3.052;2023-11-21T04:10:36;102000.60;;;5.16;57.26
80397;BME280;69721;55.894;-3.052;2023-11-21T04:13:02;101996.58;;;6.40;54.20
80397;BME280;69721;55.894;-3.052;2023-11-21T04:15:27;102006.52;;;7.78;52.25
80397;BME280;69721;55.894;-3.052;2023-11-21T04:17:52;102014.66;;;6.55;52.81
80397;BME280;69721;55.894;-3.052;2023-11-21T04:20:18;102027.22;;;6.90;52.22
80397;BME280;69721;55.894;-3.052;2023-11-21T04:22:44;102039.85;;;6.71;52.62
80397;BME280;69721;55.894;-3.052;2023-11-21T04:25:09;102043.45;;;7.53;51.18
80397;BME280;69721;55.894;-3.052;2023-11-21T04:27:35;102045.96;;;6.87;51.24
80397;BME280;69721;55.894;-3.052;2023-11-21T04:30:00;102043.66;;;7.55;50.25
80397;BME280;69721;55.894;-3.052;2023-11-21T04:32:25;102036.97;;;8.21;48.77
80397;BME280;69721;55.894;-3.052;2023-11-21T04:34:51;102039.00;;;7.83;49.66
80397;BME280;69721;55.894;-3.052;2023-11-21T04:37:16;102034.70;;;6.82;52.92
80397;BME280;69721;55.894;-3.052;2023-11-21T04:39:42;102031.89;;;7.30;52.04
80397;BME280;69721;55.894;-3.052;2023-11-21T04:42:07;102036.23;;;5.65;54.79
80397;BME280;69721;55.894;-3.052;2023-11-21T04:44:33;102039.77;;;4.72;58.11
80397;BME280;69721;55.894;-3.052;2023-11-21T04:46:58;102046.72;;;5.01;57.77
80397;BME280;69721;55.894;-3.052;2023-11-21T04:49:24;102060.02;;;6.38;55.14
80397;BME280;69721;55.894;-3.052;2023-11-21T04:51:50;102072.49;;;5.36;55.60
80397;BME280;69721;55.894;-3.052;2023-11-21T04:54:15;102075.72;;;6.43;53.77
80397;BME280;69721;55.894;-3.052;2023-11-21T04:56:41;102079.82;;;6.82;52.08
80397;BME280;69721;55.894;-3.052;2023-11-21T04:59:06;102084.30;;;5.98;53.92
80397;BME280;69721;55.894;-3.052;2023-11-21T05:01:32;102081.69;;;6.51;53.85
80397;BME280;69721;55.894;-3.052;2023-11-21T05:03:57;102074.19;;;5.93;54.90
80397;BME280;69721;55.894;-3.052;2023-11-21T05:06:22;102068.48;;;6.10;54.97
80397;BME280;69721;55.894;-3.052;2023-11-21T05:08:48;102073.81;;;5.84;55.24
80397;BME280;69721;55.894;-3.052;2023-11-21T05:11:24;102078.62;;;6.96;53.35
80397;BME280;69721;55.894;-3.052;2023-11-21T05:13:40;102088.39;;;6.37;54.41
80397;BME280;69721;55.894;-3.052;2023-11-21T05:16:06;102098.59;;;6.46;53.91
80397;BME280;69721;55.894;-3.052;2023-11-21T05:18:31;102105.53;;;8.41;49.30
80397;BME280;69721;55.894;-3.052;2023-11-21T05:20:56;102113.73;;;8.98;48.07
80397;BME280;69721;55.894;-3.052;2023-11-21T05:23:22;102120.99;;;7.09;51.63
80397;BME280;69721;55.894;-3.052;2023-11-21T05:25:47;102119.85;;;6.01;53.24
80397;BME280;69721;55.894;-3.052;2023-11-21T05:28:13;102115.86;;;6.40;53.10
80397;BME280;69721;55.894;-3.052;2023-11-21T05:30:38;102110.15;;;7.81;50.54
80397;BME280;69721;55.894;-3.052;2023-11-21T05:33:04;102120.68;;;7.93;48.87
80397;BME280;69721;55.894;-3.052;2023-11-21T05:35:29;102124.52;;;6.41;53.37
80397;BME280;69721;55.894;-3.052;2023-11-21T05:37:55;102127.93;;;8.01;50.70
80397;BME280;69721;55.894;-3.052;2023-11-21T05:40:21;102132.80;;;8.90;47.49
80397;BME280;69721;55.894;-3.052;2023-11-21T05:42:46;102138.76;;;7.58;49.02
80397;BME280;69721;55.894;-3.052;2023-11-21T05:45:12;102138.34;;;8.43;47.25
80397;BME280;69721;55.894;-3.052;2023-11-21T05:47:39;102142.17;;;7.73;49.52
80397;BME280;69721;55.894;-3.052;2023-11-21T05:50:04;102143.00;;;8.66;47.89
80397;BME280;69721;55.894;-3.052;2023-11-21T05:52:29;102142.62;;;9.28;45.96
80397;BME280;69721;55.894;-3.052;2023-11-21T05:54:54;102149.09;;;7.45;49.24
80397;BME280;69721;55.894;-3.052;2023-11-21T05:57:20;102149.80;;;8.54;47.54
80397;BME280;69721;55.894;-3.052;2023-11-21T05:59:46;102150.80;;;9.04;46.61
80397;BME280;69721;55.894;-3.052;2023-11-21T06:02:11;102146.47;;;10.88;43.64
80397;BME280;69721;55.894;-3.052;2023-11-21T06:04:37;102147.61;;;11.58;41.96
80397;BME280;69721;55.894;-3.052;2023-11-21T06:07:02;102151.67;;;9.48;44.53
80397;BME280;69721;55.894;-3.052;2023-11-21T06:09:28;102154.25;;;9.96;43.89
80397;BME280;69721;55.894;-3.052;2023-11-21T06:11:53;102158.24;;;9.58;45.00
80397;BME280;69721;55.894;-3.052;2023-11-21T06:14:18;102157.07;;;9.91;44.28
80397;BME280;69721;55.894;-3.052;2023-11-21T06:16:44;102168.17;;;8.46;45.51
80397;BME280;69721;55.894;-3.052;2023-11-21T06:19:09;102168.74;;;6.73;49.63
80397;BME280;69721;55.894;-3.052;2023-11-21T06:21:35;102164.57;;;9.50;45.73
80397;BME280;69721;55.894;-3.052;2023-11-21T06:24:01;102172.46;;;6.45;50.63
80397;BME280;69721;55.894;-3.052;2023-11-21T06:26:27;102173.62;;;7.19;49.24
80397;BME280;69721;55.894;-3.052;2023-11-21T06:28:52;102175.22;;;8.87;46.05
80397;BME280;69721;55.894;-3.052;2023-11-21T06:31:18;102177.67;;;7.95;47.62
80397;BME280;69721;55.894;-3.052;2023-11-21T06:33:43;102176.54;;;7.73;47.94
80397;BME280;69721;55.894;-3.052;2023-11-21T06:36:10;102179.92;;;7.88;47.37
80397;BME280;69721;55.894;-3.052;2023-11-21T06:38:34;102194.84;;;8.74;45.48
80397;BME280;69721;55.894;-3.052;2023-11-21T06:41:00;102196.52;;;11.29;41.40
80397;BME280;69721;55.894;-3.052;2023-11-21T06:43:25;102200.81;;;10.80;41.55
80397;BME280;69721;55.894;-3.052;2023-11-21T06:45:51;102192.14;;;11.35;40.86
80397;BME280;69721;55.894;-3.052;2023-11-21T06:48:17;102184.11;;;11.05;40.60
80397;BME280;69721;55.894;-3.052;2023-11-21T06:50:43;102191.18;;;10.61;41.51
80397;BME280;69721;55.894;-3.052;2023-11-21T06:53:08;102203.83;;;11.38;40.11
80397;BME280;69721;55.894;-3.052;2023-11-21T06:55:34;102214.03;;;11.51;39.93
80397;BME280;69721;55.894;-3.052;2023-11-21T06:58:00;102225.98;;;11.79;39.26
80397;BME280;69721;55.894;-3.052;2023-11-21T07:00:25;102226.73;;;11.49;40.12
80397;BME280;69721;55.894;-3.052;2023-11-21T07:02:50;102231.99;;;11.58;40.25
80397;BME280;69721;55.894;-3.052;2023-11-21T07:05:17;102226.89;;;11.51;40.24
80397;BME280;69721;55.894;-3.052;2023-11-21T07:07:42;102226.09;;;11.44;40.41
80397;BME280;69721;55.894;-3.052;2023-11-21T07:10:07;102232.77;;;11.12;40.68
80397;BME280;69721;55.894;-3.052;2023-11-21T07:12:32;102246.67;;;10.92;41.11
80397;BME280;69721;55.894;-3.052;2023-11-21T07:14:58;102253.11;;;11.00;41.14
80397;BME280;69721;55.894;-3.052;2023-11-21T07:17:24;102256.55;;;10.89;41.27
80397;BME280;69721;55.894;-3.052;2023-11-21T07:19:49;102261.05;;;10.31;42.18
80397;BME280;69721;55.894;-3.052;2023-11-21T07:22:15;102263.23;;;10.30;42.12
80397;BME280;69721;55.894;-3.052;2023-11-21T07:24:42;102262.71;;;10.91;41.54
80397;BME280;69721;55.894;-3.052;2023-11-21T07:27:06;102264.70;;;8.83;44.78
80397;BME280;69721;55.894;-3.052;2023-11-21T07:29:31;102256.41;;;10.44;42.34
80397;BME280;69721;55.894;-3.052;2023-11-21T07:31:57;102261.64;;;10.81;41.59
80397;BME280;69721;55.894;-3.052;2023-11-21T07:34:22;102261.98;;;11.02;41.62
80397;BME280;69721;55.894;-3.052;2023-11-21T07:36:49;102258.06;;;11.03;40.83
80397;BME280;69721;55.894;-3.052;2023-11-21T07:39:15;102256.32;;;10.63;41.13
80397;BME280;69721;55.894;-3.052;2023-11-21T07:41:40;102261.29;;;10.11;42.89
80397;BME280;69721;55.894;-3.052;2023-11-21T07:44:06;102254.79;;;10.07;42.64
80397;BME280;69721;55.894;-3.052;2023-11-21T07:46:31;102261.45;;;10.24;42.13
80397;BME280;69721;55.894;-3.052;2023-11-21T07:48:57;102268.61;;;9.94;42.26
80397;BME280;69721;55.894;-3.052;2023-11-21T07:51:22;102272.34;;;9.29;43.77
80397;BME280;69721;55.894;-3.052;2023-11-21T07:53:48;102276.70;;;8.85;44.75
80397;BME280;69721;55.894;-3.052;2023-11-21T07:56:13;102274.37;;;9.66;43.82
80397;BME280;69721;55.894;-3.052;2023-11-21T07:58:39;102273.96;;;9.45;43.96
80397;BME280;69721;55.894;-3.052;2023-11-21T08:01:04;102272.75;;;9.17;44.47
80397;BME280;69721;55.894;-3.052;2023-11-21T08:03:30;102270.20;;;9.78;43.35
80397;BME280;69721;55.894;-3.052;2023-11-21T08:05:56;102271.45;;;9.27;43.14
80397;BME280;69721;55.894;-3.052;2023-11-21T08:08:21;102274.51;;;9.49;43.23
80397;BME280;69721;55.894;-3.052;2023-11-21T08:10:46;102271.24;;;9.96;43.07
80397;BME280;69721;55.894;-3.052;2023-11-21T08:13:12;102277.02;;;9.75;42.78
80397;BME280;69721;55.894;-3.052;2023-11-21T08:15:37;102278.90;;;9.88;43.21
80397;BME280;69721;55.894;-3.052;2023-11-21T08:18:03;102281.20;;;9.30;44.03
80397;BME280;69721;55.894;-3.052;2023-11-21T08:20:28;102285.52;;;9.44;43.98
80397;BME280;69721;55.894;-3.052;2023-11-21T08:22:54;102287.09;;;9.34;44.26
80397;BME280;69721;55.894;-3.052;2023-11-21T08:25:20;102288.36;;;8.62;45.16
80397;BME280;69721;55.894;-3.052;2023-11-21T08:27:45;102295.45;;;8.92;45.11
80397;BME280;69721;55.894;-3.052;2023-11-21T08:30:11;102294.93;;;9.69;44.41
80397;BME280;69721;55.894;-3.052;2023-11-21T08:32:36;102294.75;;;9.39;44.29
80397;BME280;69721;55.894;-3.052;2023-11-21T08:35:02;102286.38;;;9.15;44.92
80397;BME280;69721;55.894;-3.052;2023-11-21T08:37:27;102291.68;;;9.70;43.99
80397;BME280;69721;55.894;-3.052;2023-11-21T08:39:53;102297.14;;;9.83;43.18
80397;BME280;69721;55.894;-3.052;2023-11-21T08:42:18;102301.43;;;9.25;43.75
80397;BME280;69721;55.894;-3.052;2023-11-21T08:44:43;102301.73;;;9.98;43.15
80397;BME280;69721;55.894;-3.052;2023-11-21T08:47:09;102305.31;;;9.71;43.08
80397;BME280;69721;55.894;-3.052;2023-11-21T08:49:35;102310.16;;;9.67;43.54
80397;BME280;69721;55.894;-3.052;2023-11-21T08:52:00;102304.84;;;9.26;43.98
80397;BME280;69721;55.894;-3.052;2023-11-21T08:54:26;102305.31;;;9.41;43.66
80397;BME280;69721;55.894;-3.052;2023-11-21T08:56:51;102310.38;;;9.18;44.21
80397;BME280;69721;55.894;-3.052;2023-11-21T08:59:17;102315.84;;;9.49;44.20
80397;BME280;69721;55.894;-3.052;2023-11-21T09:01:42;102317.54;;;10.04;43.44
80397;BME280;69721;55.894;-3.052;2023-11-21T09:04:08;102318.27;;;9.79;43.77
80397;BME280;69721;55.894;-3.052;2023-11-21T09:06:34;102320.63;;;9.52;43.94
80397;BME280;69721;55.894;-3.052;2023-11-21T09:08:59;102316.63;;;10.08;43.34
80397;BME280;69721;55.894;-3.052;2023-11-21T09:11:25;102312.40;;;10.12;42.94
80397;BME280;69721;55.894;-3.052;2023-11-21T09:13:50;102322.43;;;9.76;43.74
80397;BME280;69721;55.894;-3.052;2023-11-21T09:16:16;102330.88;;;9.98;43.51
80397;BME280;69721;55.894;-3.052;2023-11-21T09:18:41;102333.16;;;10.56;42.72
80397;BME280;69721;55.894;-3.052;2023-11-21T09:21:07;102342.28;;;9.79;43.60
80397;BME280;69721;55.894;-3.052;2023-11-21T09:23:33;102339.50;;;10.32;43.07
80397;BME280;69721;55.894;-3.052;2023-11-21T09:25:59;102337.16;;;11.01;42.41
80397;BME280;69721;55.894;-3.052;2023-11-21T09:28:24;102337.57;;;10.71;43.07
80397;BME280;69721;55.894;-3.052;2023-11-21T09:30:50;102333.42;;;11.13;41.90
80397;BME280;69721;55.894;-3.052;2023-11-21T09:33:15;102327.76;;;11.00;42.07
80397;BME280;69721;55.894;-3.052;2023-11-21T09:35:41;102330.25;;;11.19;41.74
80397;BME280;69721;55.894;-3.052;2023-11-21T09:38:06;102333.18;;;10.66;41.87
80397;BME280;69721;55.894;-3.052;2023-11-21T09:40:33;102345.05;;;10.47;41.87
80397;BME280;69721;55.894;-3.052;2023-11-21T09:42:58;102347.19;;;10.95;41.58
80397;BME280;69721;55.894;-3.052;2023-11-21T09:45:25;102344.93;;;10.50;41.61
80397;BME280;69721;55.894;-3.052;2023-11-21T09:47:49;102340.71;;;11.11;40.53
80397;BME280;69721;55.894;-3.052;2023-11-21T09:50:17;102341.20;;;11.14;40.50
80397;BME280;69721;55.894;-3.052;2023-11-21T09:52:47;102344.21;;;11.46;40.39
80397;BME280;69721;55.894;-3.052;2023-11-21T09:55:07;102355.68;;;11.28;40.79
80397;BME280;69721;55.894;-3.052;2023-11-21T09:57:31;102355.40;;;11.61;40.21
80397;BME280;69721;55.894;-3.052;2023-11-21T09:59:58;102356.59;;;12.08;40.10
80397;BME280;69721;55.894;-3.052;2023-11-21T10:02:26;102357.74;;;11.81;40.43
80397;BME280;69721;55.894;-3.052;2023-11-21T10:04:47;102358.23;;;12.13;40.21
80397;BME280;69721;55.894;-3.052;2023-11-21T10:07:15;102359.12;;;11.79;40.23
80397;BME280;69721;55.894;-3.052;2023-11-21T10:09:39;102357.08;;;11.38;40.24
80397;BME280;69721;55.894;-3.052;2023-11-21T10:12:06;102357.19;;;11.61;40.35
80397;BME280;69721;55.894;-3.052;2023-11-21T10:14:30;102367.69;;;10.40;41.05
80397;BME280;69721;55.894;-3.052;2023-11-21T10:16:56;102362.36;;;11.46;40.74
80397;BME280;69721;55.894;-3.052;2023-11-21T10:19:21;102354.85;;;11.22;40.23
80397;BME280;69721;55.894;-3.052;2023-11-21T10:21:46;102353.68;;;11.64;39.56
80397;BME280;69721;55.894;-3.052;2023-11-21T10:24:12;102357.93;;;12.21;38.88
80397;BME280;69721;55.894;-3.052;2023-11-21T10:26:38;102355.97;;;11.39;39.31
80397;BME280;69721;55.894;-3.052;2023-11-21T10:29:03;102361.85;;;11.05;40.12
80397;BME280;69721;55.894;-3.052;2023-11-21T10:31:29;102369.41;;;10.11;40.49
80397;BME280;69721;55.894;-3.052;2023-11-21T10:33:54;102360.11;;;11.96;39.68
80397;BME280;69721;55.894;-3.052;2023-11-21T10:36:25;102368.01;;;8.88;42.67
80397;BME280;69721;55.894;-3.052;2023-11-21T10:38:45;102363.79;;;10.33;41.96
80397;BME280;69721;55.894;-3.052;2023-11-21T10:41:11;102359.68;;;10.89;41.35
80397;BME280;69721;55.894;-3.052;2023-11-21T10:43:36;102363.62;;;11.23;39.53
80397;BME280;69721;55.894;-3.052;2023-11-21T10:46:02;102363.28;;;10.43;41.20
80397;BME280;69721;55.894;-3.052;2023-11-21T10:48:27;102362.74;;;10.54;41.43
80397;BME280;69721;55.894;-3.052;2023-11-21T10:50:53;102359.62;;;10.62;41.00
80397;BME280;69721;55.894;-3.052;2023-11-21T10:53:18;102355.77;;;11.67;39.08
80397;BME280;69721;55.894;-3.052;2023-11-21T10:55:44;102355.56;;;11.06;39.88
80397;BME280;69721;55.894;-3.052;2023-11-21T10:58:11;102362.73;;;10.40;40.31
80397;BME280;69721;55.894;-3.052;2023-11-21T11:00:35;102365.79;;;9.75;42.37
80397;BME280;69721;55.894;-3.052;2023-11-21T11:03:00;102364.45;;;9.98;41.59
80397;BME280;69721;55.894;-3.052;2023-11-21T11:05:27;102364.57;;;9.18;41.72
80397;BME280;69721;55.894;-3.052;2023-11-21T11:07:55;102361.87;;;10.25;40.66
80397;BME280;69721;55.894;-3.052;2023-11-21T11:10:18;102362.02;;;9.83;41.00
80397;BME280;69721;55.894;-3.052;2023-11-21T11:12:46;102358.45;;;10.20;40.76
80397;BME280;69721;55.894;-3.052;2023-11-21T11:15:09;102350.71;;;11.05;39.56
80397;BME280;69721;55.894;-3.052;2023-11-21T11:17:34;102354.12;;;9.76;40.85
80397;BME280;69721;55.894;-3.052;2023-11-21T11:20:00;102348.10;;;11.11;39.79
80397;BME280;69721;55.894;-3.052;2023-11-21T11:22:32;102350.78;;;10.15;40.30
80397;BME280;69721;55.894;-3.052;2023-11-21T11:25:10;102351.22;;;10.50;40.27
80397;BME280;69721;55.894;-3.052;2023-11-21T11:27:24;102355.20;;;9.96;40.53
80397;BME280;69721;55.894;-3.052;2023-11-21T11:29:56;102351.48;;;10.66;40.57
80397;BME280;69721;55.894;-3.052;2023-11-21T11:32:16;102354.31;;;10.36;40.27
80397;BME280;69721;55.894;-3.052;2023-11-21T11:34:34;102342.43;;;10.76;40.24
80397;BME280;69721;55.894;-3.052;2023-11-21T11:37:01;102334.27;;;11.59;38.71
80397;BME280;69721;55.894;-3.052;2023-11-21T11:39:29;102328.76;;;12.19;37.34
80397;BME280;69721;55.894;-3.052;2023-11-21T11:41:50;102327.63;;;11.54;38.85
80397;BME280;69721;55.894;-3.052;2023-11-21T11:46:46;102326.88;;;10.24;39.76
80397;BME280;69721;55.894;-3.052;2023-11-21T11:51:37;102320.97;;;11.18;38.51
80397;BME280;69721;55.894;-3.052;2023-11-21T11:54:02;102323.90;;;11.47;37.73
80397;BME280;69721;55.894;-3.052;2023-11-21T11:56:29;102325.73;;;10.25;39.44
80397;BME280;69721;55.894;-3.052;2023-11-21T11:58:54;102329.29;;;9.93;39.09
80397;BME280;69721;55.894;-3.052;2023-11-21T12:01:19;102326.64;;;11.29;39.13
80397;BME280;69721;55.894;-3.052;2023-11-21T12:03:45;102327.08;;;10.87;38.84
80397;BME280;69721;55.894;-3.052;2023-11-21T12:06:10;102330.66;;;11.39;38.88
80397;BME280;69721;55.894;-3.052;2023-11-21T12:08:36;102333.89;;;11.03;39.30
80397;BME280;69721;55.894;-3.052;2023-11-21T12:11:01;102335.90;;;10.92;39.51
80397;BME280;69721;55.894;-3.052;2023-11-21T12:13:28;102335.29;;;11.44;38.54
80397;BME280;69721;55.894;-3.052;2023-11-21T12:15:52;102338.24;;;11.51;37.51
80397;BME280;69721;55.894;-3.052;2023-11-21T12:18:18;102341.47;;;11.30;37.51
80397;BME280;69721;55.894;-3.052;2023-11-21T12:20:43;102350.22;;;10.32;40.06
80397;BME280;69721;55.894;-3.052;2023-11-21T12:23:09;102352.72;;;10.41;38.97
80397;BME280;69721;55.894;-3.052;2023-11-21T12:25:34;102349.65;;;11.50;37.58
80397;BME280;69721;55.894;-3.052;2023-11-21T12:28:00;102342.35;;;11.29;37.52
80397;BME280;69721;55.894;-3.052;2023-11-21T12:30:27;102341.69;;;9.94;39.51
80397;BME280;69721;55.894;-3.052;2023-11-21T12:32:52;102331.33;;;12.33;37.93
80397;BME280;69721;55.894;-3.052;2023-11-21T12:35:16;102324.56;;;11.18;38.62
80397;BME280;69721;55.894;-3.052;2023-11-21T12:37:42;102329.32;;;12.06;37.93
80397;BME280;69721;55.894;-3.052;2023-11-21T12:40:08;102331.43;;;12.64;37.74
80397;BME280;69721;55.894;-3.052;2023-11-21T12:42:33;102327.96;;;12.71;38.01